createdAt,value
2023-11-19T00:00:14.247Z,100.00
2023-11-19T00:02:41.965Z,100.00
2023-11-19T00:05:10.277Z,100.00
2023-11-19T00:07:37.739Z,100.00
2023-11-19T00:10:08.065Z,100.00
2023-11-19T00:12:35.054Z,100.00
2023-11-19T00:15:02.252Z,100.00
2023-11-19T00:17:29.047Z,100.00
2023-11-19T00:19:55.569Z,100.00
2023-11-19T00:22:22.988Z,100.00
2023-11-19T00:24:49.687Z,100.00
2023-11-19T00:27:17.694Z,100.00
2023-11-19T00:29:45.966Z,100.00
2023-11-19T00:32:12.982Z,100.00
2023-11-19T00:34:40.018Z,100.00
2023-11-19T00:37:06.636Z,100.00
2023-11-19T00:39:33.205Z,100.00
2023-11-19T00:41:59.762Z,100.00
2023-11-19T00:44:26.480Z,100.00
2023-11-19T00:46:53.079Z,100.00
2023-11-19T00:49:19.660Z,100.00
2023-11-19T00:51:46.883Z,100.00
2023-11-19T00:54:13.462Z,100.00
2023-11-19T00:56:41.042Z,100.00
2023-11-19T00:59:07.584Z,100.00
2023-11-19T01:01:34.241Z,100.00
2023-11-19T01:04:00.923Z,100.00
2023-11-19T01:06:32.150Z,100.00
2023-11-19T01:08:59.621Z,100.00
2023-11-19T01:11:26.843Z,100.00
2023-11-19T01:13:53.577Z,100.00
2023-11-19T01:16:20.751Z,100.00
2023-11-19T01:18:49.612Z,100.00
2023-11-19T01:21:16.955Z,100.00
2023-11-19T01:23:46.913Z,100.00
2023-11-19T01:26:13.841Z,100.00
2023-11-19T01:28:51.951Z,100.00
2023-11-19T01:31:19.369Z,100.00
2023-11-19T01:33:46.004Z,100.00
2023-11-19T01:36:15.452Z,100.00
2023-11-19T01:38:42.655Z,100.00
2023-11-19T01:41:09.861Z,100.00
2023-11-19T01:43:39.476Z,100.00
2023-11-19T01:46:08.100Z,100.00
2023-11-19T01:48:36.293Z,100.00
2023-11-19T01:51:04.864Z,100.00
2023-11-19T01:53:32.943Z,100.00
2023-11-19T01:55:59.642Z,100.00
2023-11-19T01:58:26.424Z,100.00
2023-11-19T02:00:53.171Z,100.00
2023-11-19T02:03:21.265Z,100.00
2023-11-19T02:05:50.460Z,100.00
2023-11-19T02:08:17.221Z,100.00
2023-11-19T02:10:44.373Z,100.00
2023-11-19T02:13:11.413Z,100.00
2023-11-19T02:15:38.174Z,100.00
2023-11-19T02:18:28.758Z,100.00
2023-11-19T02:20:56.706Z,100.00
2023-11-19T02:23:24.030Z,100.00
2023-11-19T02:26:11.227Z,100.00
2023-11-19T02:28:38.477Z,100.00
2023-11-19T02:31:11.747Z,100.00
2023-11-19T02:33:39.712Z,100.00
2023-11-19T02:36:08.096Z,100.00
2023-11-19T02:38:36.707Z,100.00
2023-11-19T02:41:07.752Z,100.00
2023-11-19T02:43:35.325Z,100.00
2023-11-19T02:47:12.598Z,100.00
2023-11-19T02:49:39.815Z,100.00
2023-11-19T02:52:07.224Z,100.00
2023-11-19T02:54:36.084Z,100.00
2023-11-19T02:57:04.792Z,100.00
2023-11-19T02:59:40.048Z,100.00
2023-11-19T03:02:13.068Z,100.00
2023-11-19T03:04:41.205Z,100.00
2023-11-19T03:07:10.537Z,100.00
2023-11-19T03:09:37.225Z,100.00
2023-11-19T03:12:05.472Z,100.00
2023-11-19T03:14:36.554Z,100.00
2023-11-19T03:17:04.625Z,100.00
2023-11-19T03:19:31.417Z,100.00
2023-11-19T03:21:58.075Z,100.00
2023-11-19T03:24:26.116Z,100.00
2023-11-19T03:26:52.830Z,100.00
2023-11-19T03:29:19.443Z,100.00
2023-11-19T03:31:45.984Z,100.00
2023-11-19T03:34:12.763Z,100.00
2023-11-19T03:36:40.922Z,100.00
2023-11-19T03:39:07.764Z,100.00
2023-11-19T03:44:04.008Z,100.00
2023-11-19T03:46:31.374Z,100.00
2023-11-19T03:48:58.488Z,100.00
2023-11-19T03:51:25.109Z,100.00
2023-11-19T03:53:52.447Z,100.00
2023-11-19T03:56:19.208Z,100.00
2023-11-19T03:58:45.796Z,100.00
2023-11-19T04:01:16.134Z,100.00
2023-11-19T04:06:12.434Z,100.00
2023-11-19T04:08:39.195Z,100.00
2023-11-19T04:11:06.485Z,100.00
2023-11-19T04:13:33.578Z,100.00
2023-11-19T04:16:00.264Z,100.00
2023-11-19T04:18:27.512Z,100.00
2023-11-19T04:20:54.090Z,100.00
2023-11-19T04:23:20.597Z,100.00
2023-11-19T04:25:47.340Z,100.00
2023-11-19T04:28:13.932Z,100.00
2023-11-19T04:30:41.487Z,100.00
2023-11-19T04:33:08.129Z,100.00
2023-11-19T04:35:34.719Z,100.00
2023-11-19T04:38:01.312Z,100.00
2023-11-19T04:40:27.887Z,100.00
2023-11-19T04:42:54.487Z,100.00
2023-11-19T04:45:21.440Z,100.00
2023-11-19T04:47:47.986Z,100.00
2023-11-19T04:50:14.586Z,100.00
2023-11-19T04:52:41.451Z,100.00
2023-11-19T04:55:08.499Z,100.00
2023-11-19T04:57:35.114Z,100.00
2023-11-19T05:00:01.759Z,100.00
2023-11-19T05:02:28.854Z,100.00
2023-11-19T05:04:55.623Z,100.00
2023-11-19T05:07:22.341Z,100.00
2023-11-19T05:09:49.164Z,100.00
2023-11-19T05:12:16.141Z,100.00
2023-11-19T05:14:50.860Z,100.00
2023-11-19T05:17:19.694Z,100.00
2023-11-19T05:19:46.839Z,100.00
2023-11-19T05:22:14.458Z,100.00
2023-11-19T05:24:42.433Z,100.00
2023-11-19T05:27:09.177Z,100.00
2023-11-19T05:29:35.795Z,100.00
2023-11-19T05:32:02.923Z,100.00
2023-11-19T05:34:30.137Z,100.00
2023-11-19T05:36:56.772Z,100.00
2023-11-19T05:39:23.317Z,100.00
2023-11-19T05:41:49.906Z,100.00
2023-11-19T05:44:16.511Z,100.00
2023-11-19T05:46:44.536Z,100.00
2023-11-19T05:49:12.338Z,100.00
2023-11-19T05:51:39.998Z,100.00
2023-11-19T05:54:11.554Z,100.00
2023-11-19T05:56:38.224Z,100.00
2023-11-19T05:59:08.321Z,100.00
2023-11-19T06:01:36.550Z,100.00
2023-11-19T06:04:03.505Z,100.00
2023-11-19T06:06:31.310Z,100.00
2023-11-19T06:08:57.908Z,100.00
2023-11-19T06:11:27.930Z,100.00
2023-11-19T06:13:54.588Z,100.00
2023-11-19T06:16:21.483Z,100.00
2023-11-19T06:18:48.161Z,100.00
2023-11-19T06:21:14.783Z,100.00
2023-11-19T06:23:41.551Z,100.00
2023-11-19T06:26:08.265Z,100.00
2023-11-19T06:28:35.155Z,100.00
2023-11-19T06:31:01.962Z,100.00
2023-11-19T06:33:28.604Z,100.00
2023-11-19T06:35:55.818Z,100.00
2023-11-19T06:38:24.591Z,100.00
2023-11-19T06:40:54.599Z,100.00
2023-11-19T06:43:22.176Z,100.00
2023-11-19T06:45:48.932Z,100.00
2023-11-19T06:48:15.508Z,100.00
2023-11-19T06:50:43.198Z,100.00
2023-11-19T06:53:11.572Z,100.00
2023-11-19T06:55:38.506Z,100.00
2023-11-19T06:58:05.112Z,100.00
2023-11-19T07:00:33.644Z,100.00
2023-11-19T07:03:01.419Z,100.00
2023-11-19T07:05:29.259Z,100.00
2023-11-19T07:07:56.838Z,100.00
2023-11-19T07:10:23.468Z,100.00
2023-11-19T07:12:51.371Z,100.00
2023-11-19T07:15:18.822Z,100.00
2023-11-19T07:17:46.553Z,100.00
2023-11-19T07:20:16.449Z,100.00
2023-11-19T07:22:47.349Z,100.00
2023-11-19T07:25:14.712Z,100.00
2023-11-19T07:27:41.316Z,100.00
2023-11-19T07:30:11.017Z,100.00
2023-11-19T07:32:40.282Z,100.00
2023-11-19T07:35:07.994Z,100.00
2023-11-19T07:37:35.130Z,100.00
2023-11-19T07:40:01.709Z,100.00
2023-11-19T07:42:28.487Z,100.00
2023-11-19T07:44:56.813Z,100.00
2023-11-19T07:47:24.477Z,100.00
2023-11-19T07:49:53.885Z,100.00
2023-11-19T07:52:22.232Z,100.00
2023-11-19T07:54:49.271Z,100.00
2023-11-19T07:57:16.485Z,100.00
2023-11-19T07:59:43.231Z,100.00
2023-11-19T08:02:10.295Z,100.00
2023-11-19T08:04:37.142Z,100.00
2023-11-19T08:07:04.558Z,100.00
2023-11-19T08:09:31.889Z,100.00
2023-11-19T08:11:58.473Z,100.00
2023-11-19T08:14:25.646Z,97.20
2023-11-19T08:16:52.337Z,95.73
2023-11-19T08:19:19.129Z,95.02
2023-11-19T08:21:46.183Z,95.14
2023-11-19T08:24:12.790Z,94.53
2023-11-19T08:26:39.726Z,95.20
2023-11-19T08:29:07.658Z,95.65
2023-11-19T08:31:34.225Z,96.37
2023-11-19T08:34:00.796Z,96.77
2023-11-19T08:36:29.008Z,97.84
2023-11-19T08:38:55.691Z,99.23
2023-11-19T08:41:22.814Z,99.35
2023-11-19T08:43:51.701Z,99.51
2023-11-19T08:46:18.500Z,100.00
2023-11-19T08:48:45.237Z,100.00
2023-11-19T08:51:12.176Z,100.00
2023-11-19T08:53:38.690Z,100.00
2023-11-19T08:56:06.330Z,100.00
2023-11-19T08:58:33.431Z,99.16
2023-11-19T09:01:00.255Z,98.22
2023-11-19T09:03:31.397Z,97.46
2023-11-19T09:05:58.695Z,97.35
2023-11-19T09:08:25.404Z,96.94
2023-11-19T09:10:52.253Z,97.35
2023-11-19T09:13:18.871Z,97.48
2023-11-19T09:15:45.813Z,97.30
2023-11-19T09:18:12.676Z,98.40
2023-11-19T09:20:40.250Z,98.66
2023-11-19T09:23:07.845Z,98.69
2023-11-19T09:28:04.678Z,99.16
2023-11-19T09:30:31.817Z,99.36
2023-11-19T09:32:58.534Z,99.87
2023-11-19T09:35:25.185Z,100.00
2023-11-19T09:37:51.854Z,99.76
2023-11-19T09:40:19.630Z,97.71
2023-11-19T09:42:49.635Z,96.40
2023-11-19T09:45:17.876Z,93.54
2023-11-19T09:47:47.572Z,91.36
2023-11-19T09:50:22.357Z,90.52
2023-11-19T09:52:48.956Z,90.04
2023-11-19T09:55:15.943Z,89.92
2023-11-19T09:57:43.159Z,90.82
2023-11-19T10:00:11.946Z,90.25
2023-11-19T10:02:40.723Z,89.42
2023-11-19T10:05:08.449Z,89.11
2023-11-19T10:07:35.212Z,89.88
2023-11-19T10:10:03.172Z,88.59
2023-11-19T10:12:30.253Z,86.31
2023-11-19T10:14:59.245Z,85.67
2023-11-19T10:17:30.727Z,86.29
2023-11-19T10:19:57.319Z,85.72
2023-11-19T10:22:25.317Z,84.66
2023-11-19T10:24:56.515Z,83.86
2023-11-19T10:27:26.262Z,84.03
2023-11-19T10:29:53.013Z,84.75
2023-11-19T10:32:25.567Z,84.97
2023-11-19T10:35:06.519Z,85.46
2023-11-19T10:37:33.960Z,85.92
2023-11-19T10:40:00.861Z,86.64
2023-11-19T10:42:27.455Z,86.81
2023-11-19T10:44:53.980Z,87.65
2023-11-19T10:47:37.762Z,88.06
2023-11-19T10:50:07.333Z,89.96
2023-11-19T10:52:34.413Z,90.90
2023-11-19T10:55:06.044Z,91.32
2023-11-19T10:57:37.665Z,92.04
2023-11-19T11:00:11.679Z,92.33
2023-11-19T11:02:43.076Z,92.47
2023-11-19T11:05:12.002Z,91.70
2023-11-19T11:07:42.225Z,90.97
2023-11-19T11:10:10.890Z,90.42
2023-11-19T11:12:39.238Z,89.30
2023-11-19T11:15:08.202Z,87.60
2023-11-19T11:17:35.253Z,85.25
2023-11-19T11:20:03.729Z,84.11
2023-11-19T11:22:44.347Z,82.47
2023-11-19T11:25:28.142Z,81.71
2023-11-19T11:28:16.006Z,80.52
2023-11-19T11:31:11.315Z,81.22
2023-11-19T11:34:08.715Z,79.20
2023-11-19T11:37:11.131Z,76.11
2023-11-19T11:39:37.783Z,74.44
2023-11-19T11:42:19.221Z,74.13
2023-11-19T11:45:11.057Z,74.06
2023-11-19T11:47:43.704Z,71.18
2023-11-19T11:50:15.063Z,71.27
2023-11-19T11:53:00.136Z,70.97
2023-11-19T11:55:34.930Z,70.72
2023-11-19T11:58:01.937Z,70.73
2023-11-19T12:00:31.359Z,71.72
2023-11-19T12:03:00.976Z,72.08
2023-11-19T12:05:28.828Z,72.39
2023-11-19T12:08:03.948Z,71.35
2023-11-19T12:10:34.633Z,72.56
2023-11-19T12:13:02.207Z,72.76
2023-11-19T12:15:29.207Z,74.02
2023-11-19T12:17:56.468Z,73.33
2023-11-19T12:22:55.088Z,72.91
2023-11-19T12:25:21.769Z,72.23
2023-11-19T12:27:50.079Z,72.63
2023-11-19T12:30:34.734Z,72.69
2023-11-19T12:33:01.453Z,73.85
2023-11-19T12:35:28.017Z,73.65
2023-11-19T12:37:54.696Z,74.73
2023-11-19T12:40:23.952Z,72.96
2023-11-19T12:42:54.979Z,72.17
2023-11-19T12:45:24.699Z,72.73
2023-11-19T12:47:53.663Z,71.59
2023-11-19T12:50:20.559Z,70.90
2023-11-19T12:52:58.154Z,68.81
2023-11-19T12:55:31.771Z,66.66
2023-11-19T12:57:59.425Z,64.69
2023-11-19T13:00:27.825Z,64.53
2023-11-19T13:02:56.889Z,65.07
2023-11-19T13:05:27.419Z,65.18
2023-11-19T13:08:08.378Z,64.43
2023-11-19T13:10:52.087Z,65.49
2023-11-19T13:13:18.688Z,65.84
2023-11-19T13:15:46.058Z,65.49
2023-11-19T13:18:13.227Z,66.45
2023-11-19T13:20:39.885Z,66.17
2023-11-19T13:23:11.408Z,65.79
2023-11-19T13:25:38.102Z,66.00
2023-11-19T13:28:05.014Z,65.51
2023-11-19T13:30:31.707Z,65.68
2023-11-19T13:32:58.488Z,66.16
2023-11-19T13:35:25.791Z,65.95
2023-11-19T13:37:52.969Z,65.15
2023-11-19T13:40:20.581Z,65.00
2023-11-19T13:42:47.661Z,65.10
2023-11-19T13:45:15.981Z,64.56
2023-11-19T13:47:44.375Z,63.65
2023-11-19T13:50:15.576Z,63.93
2023-11-19T13:52:46.189Z,63.86
2023-11-19T13:55:13.599Z,63.26
2023-11-19T13:57:41.732Z,63.54
2023-11-19T14:00:13.805Z,62.63
2023-11-19T14:02:42.165Z,63.45
2023-11-19T14:05:12.562Z,62.70
2023-11-19T14:07:40.380Z,63.40
2023-11-19T14:10:10.410Z,63.82
2023-11-19T14:12:38.449Z,63.75
2023-11-19T14:15:10.484Z,63.68
2023-11-19T14:17:37.606Z,63.44
2023-11-19T14:20:13.713Z,62.96
2023-11-19T14:22:41.426Z,63.28
2023-11-19T14:25:11.152Z,64.21
2023-11-19T14:27:41.960Z,63.85
2023-11-19T14:30:12.253Z,63.47
2023-11-19T14:32:40.501Z,63.09
2023-11-19T14:35:07.649Z,63.55
2023-11-19T14:37:34.666Z,63.94
2023-11-19T14:40:01.887Z,63.78
2023-11-19T14:42:28.495Z,64.21
2023-11-19T14:44:55.258Z,64.34
2023-11-19T14:47:22.679Z,64.41
2023-11-19T14:49:49.521Z,65.15
2023-11-19T14:52:17.862Z,65.18
2023-11-19T14:54:45.021Z,64.94
2023-11-19T14:57:11.837Z,66.02
2023-11-19T14:59:38.878Z,65.68
2023-11-19T15:02:06.658Z,65.71
2023-11-19T15:04:35.523Z,66.32
2023-11-19T15:07:02.335Z,65.94
2023-11-19T15:09:28.903Z,66.42
2023-11-19T15:11:55.523Z,66.73
2023-11-19T15:14:22.249Z,66.19
2023-11-19T15:16:50.559Z,66.37
2023-11-19T15:19:17.216Z,66.83
2023-11-19T15:21:43.784Z,67.00
2023-11-19T15:24:11.825Z,67.30
2023-11-19T15:26:38.976Z,67.12
2023-11-19T15:29:06.154Z,66.94
2023-11-19T15:31:32.834Z,67.37
2023-11-19T15:33:59.409Z,66.58
2023-11-19T15:36:26.106Z,66.74
2023-11-19T15:38:53.562Z,67.06
2023-11-19T15:41:20.724Z,66.42
2023-11-19T15:43:47.566Z,66.57
2023-11-19T15:46:14.190Z,66.73
2023-11-19T15:48:42.229Z,67.03
2023-11-19T15:51:08.759Z,66.70
2023-11-19T15:53:35.304Z,66.94
2023-11-19T15:56:02.839Z,67.22
2023-11-19T15:58:29.539Z,67.23
2023-11-19T16:00:56.855Z,67.20
2023-11-19T16:03:23.759Z,67.27
2023-11-19T16:06:01.188Z,67.79
2023-11-19T16:08:34.799Z,67.92
2023-11-19T16:11:01.436Z,68.17
2023-11-19T16:13:28.002Z,68.62
2023-11-19T16:15:54.785Z,68.71
2023-11-19T16:18:22.446Z,69.09
2023-11-19T16:20:49.084Z,69.38
2023-11-19T16:23:18.526Z,69.72
2023-11-19T16:25:45.185Z,69.76
2023-11-19T16:28:11.706Z,70.00
2023-11-19T16:30:38.448Z,69.96
2023-11-19T16:33:06.960Z,70.68
2023-11-19T16:35:37.789Z,70.61
2023-11-19T16:38:04.342Z,70.66
2023-11-19T16:40:30.936Z,71.18
2023-11-19T16:42:57.912Z,71.03
2023-11-19T16:45:24.447Z,71.27
2023-11-19T16:47:51.162Z,71.24
2023-11-19T16:50:18.071Z,71.35
2023-11-19T16:52:49.039Z,71.36
2023-11-19T16:55:16.937Z,71.72
2023-11-19T16:57:45.087Z,71.61
2023-11-19T17:00:12.473Z,71.72
2023-11-19T17:05:18.102Z,71.04
2023-11-19T17:07:44.731Z,71.06
2023-11-19T17:10:11.770Z,71.17
2023-11-19T17:12:38.579Z,71.18
2023-11-19T17:15:05.966Z,71.16
2023-11-19T17:17:36.957Z,70.91
2023-11-19T17:20:05.425Z,71.01
2023-11-19T17:22:36.644Z,70.94
2023-11-19T17:25:04.088Z,71.30
2023-11-19T17:27:31.448Z,71.60
2023-11-19T17:29:58.915Z,71.52
2023-11-19T17:32:26.861Z,71.88
2023-11-19T17:34:54.305Z,71.53
2023-11-19T17:37:21.006Z,72.21
2023-11-19T17:39:47.717Z,71.68
2023-11-19T17:42:14.635Z,71.86
2023-11-19T17:44:41.238Z,71.60
2023-11-19T17:47:08.328Z,71.21
2023-11-19T17:49:35.326Z,71.04
2023-11-19T17:52:02.571Z,70.73
2023-11-19T17:54:29.780Z,70.13
2023-11-19T17:56:58.063Z,70.32
2023-11-19T17:59:25.937Z,70.31
2023-11-19T18:01:57.321Z,69.98
2023-11-19T18:04:28.439Z,70.00
2023-11-19T18:06:55.888Z,69.98
2023-11-19T18:09:22.746Z,70.51
2023-11-19T18:11:53.800Z,70.70
2023-11-19T18:14:24.385Z,70.76
2023-11-19T18:16:51.180Z,71.01
2023-11-19T18:19:19.495Z,71.18
2023-11-19T18:21:46.981Z,71.10
2023-11-19T18:24:16.056Z,71.16
2023-11-19T18:26:44.863Z,71.12
2023-11-19T18:29:12.311Z,71.03
2023-11-19T18:31:39.244Z,71.12
2023-11-19T18:34:06.149Z,71.09
2023-11-19T18:36:35.996Z,71.15
2023-11-19T18:39:02.618Z,71.37
2023-11-19T18:41:30.077Z,71.34
2023-11-19T18:43:57.370Z,71.56
2023-11-19T18:46:24.079Z,71.74
2023-11-19T18:48:52.811Z,71.87
2023-11-19T18:51:19.438Z,72.19
2023-11-19T18:53:46.971Z,72.24
2023-11-19T18:56:14.638Z,72.31
2023-11-19T18:58:41.298Z,72.50
2023-11-19T19:01:09.966Z,73.15
2023-11-19T19:03:37.381Z,73.02
2023-11-19T19:06:07.284Z,73.37
2023-11-19T19:08:35.196Z,73.44
2023-11-19T19:11:01.777Z,73.48
2023-11-19T19:13:28.386Z,73.77
2023-11-19T19:15:55.142Z,73.55
2023-11-19T19:18:21.803Z,73.33
2023-11-19T19:20:48.525Z,73.25
2023-11-19T19:23:15.187Z,73.60
2023-11-19T19:25:41.771Z,73.28
2023-11-19T19:30:40.071Z,73.44
2023-11-19T19:33:07.132Z,73.37
2023-11-19T19:35:33.838Z,73.29
2023-11-19T19:38:00.699Z,73.34
2023-11-19T19:40:28.042Z,73.55
2023-11-19T19:42:56.149Z,73.79
2023-11-19T19:45:23.754Z,74.03
2023-11-19T19:47:51.568Z,73.57
2023-11-19T19:50:18.385Z,73.51
2023-11-19T19:52:44.987Z,73.87
2023-11-19T19:55:13.032Z,73.54
2023-11-19T19:57:39.659Z,73.61
2023-11-19T20:00:16.149Z,74.04
2023-11-19T20:02:45.510Z,73.85
2023-11-19T20:05:13.129Z,73.90
2023-11-19T20:07:44.394Z,73.83
2023-11-19T20:10:11.695Z,73.66
2023-11-19T20:12:39.501Z,74.02
2023-11-19T20:15:10.611Z,74.04
2023-11-19T20:17:38.662Z,74.04
2023-11-19T20:20:06.939Z,74.54
2023-11-19T20:22:35.264Z,74.73
2023-11-19T20:25:02.157Z,74.42
2023-11-19T20:27:29.288Z,74.39
2023-11-19T20:29:56.039Z,74.36
2023-11-19T20:32:23.153Z,74.47
2023-11-19T20:34:49.801Z,74.80
2023-11-19T20:37:16.401Z,74.74
2023-11-19T20:39:42.954Z,75.04
2023-11-19T20:42:09.967Z,75.20
2023-11-19T20:44:37.721Z,75.34
2023-11-19T20:47:06.196Z,75.67
2023-11-19T20:49:33.112Z,75.79
2023-11-19T20:52:00.930Z,75.76
2023-11-19T20:57:01.171Z,75.70
2023-11-19T20:59:27.841Z,75.41
2023-11-19T21:01:54.685Z,75.09
2023-11-19T21:04:21.686Z,75.18
2023-11-19T21:09:21.304Z,74.78
2023-11-19T21:11:51.618Z,74.81
2023-11-19T21:14:20.296Z,75.09
2023-11-19T21:16:46.972Z,75.43
2023-11-19T21:19:20.105Z,75.38
2023-11-19T21:21:47.407Z,75.63
2023-11-19T21:24:14.277Z,75.57
2023-11-19T21:26:43.312Z,75.54
2023-11-19T21:29:12.340Z,75.66
2023-11-19T21:34:08.626Z,75.46
2023-11-19T21:36:35.248Z,75.35
2023-11-19T21:39:01.874Z,75.08
2023-11-19T21:41:28.804Z,75.13
2023-11-19T21:46:25.745Z,75.21
2023-11-19T21:48:52.816Z,75.04
2023-11-19T21:51:20.415Z,75.10
2023-11-19T21:53:47.257Z,74.86
2023-11-19T21:56:13.877Z,74.90
2023-11-19T21:58:40.940Z,75.14
2023-11-19T22:01:08.342Z,75.15
2023-11-19T22:03:35.352Z,75.56
2023-11-19T22:06:02.108Z,75.61
2023-11-19T22:08:30.526Z,75.34
2023-11-19T22:10:57.201Z,75.18
2023-11-19T22:13:24.013Z,74.96
2023-11-19T22:15:50.749Z,75.22
2023-11-19T22:18:17.281Z,75.22
2023-11-19T22:20:43.945Z,75.41
2023-11-19T22:23:10.524Z,75.43
2023-11-19T22:25:37.343Z,75.65
2023-11-19T22:28:04.101Z,75.44
2023-11-19T22:30:30.796Z,75.48
2023-11-19T22:32:57.393Z,75.45
2023-11-19T22:35:24.276Z,75.71
2023-11-19T22:37:50.880Z,75.63
2023-11-19T22:40:17.692Z,75.65
2023-11-19T22:42:44.302Z,75.56
2023-11-19T22:45:11.171Z,75.62
2023-11-19T22:47:37.836Z,75.74
2023-11-19T22:50:08.052Z,75.88
2023-11-19T22:52:34.846Z,75.93
2023-11-19T22:55:01.491Z,75.89
2023-11-19T22:57:28.308Z,76.25
2023-11-19T22:59:55.013Z,76.58
2023-11-19T23:02:21.570Z,76.40
2023-11-19T23:04:48.156Z,76.37
2023-11-19T23:07:14.966Z,76.21
2023-11-19T23:09:41.725Z,76.58
2023-11-19T23:12:08.665Z,76.74
2023-11-19T23:14:35.272Z,76.84
2023-11-19T23:17:01.816Z,76.69
2023-11-19T23:19:28.378Z,77.07
2023-11-19T23:21:54.912Z,77.12
2023-11-19T23:24:21.486Z,77.21
2023-11-19T23:26:48.031Z,77.41
2023-11-19T23:29:16.586Z,77.48
2023-11-19T23:31:46.636Z,77.87
2023-11-19T23:34:13.379Z,77.97
2023-11-19T23:36:39.959Z,77.62
2023-11-19T23:39:07.624Z,78.16
2023-11-19T23:41:34.602Z,78.17
2023-11-19T23:44:01.167Z,78.38
2023-11-19T23:46:27.868Z,78.50
2023-11-19T23:51:26.989Z,78.54
2023-11-19T23:53:54.835Z,78.68
2023-11-19T23:56:21.709Z,79.08
2023-11-19T23:58:49.477Z,78.80
